• Join FlightAware (Why Join?)
  • Login
  • US Flag 
02:37AM EDT


 

Airport Tracker/Info


-or-


 

Live Flight TrackerFlight Track Log ✈ AFR1068 ✈ 24-Apr-2013 ✈ LFPG / CDG - EGCC / MAN

Flight Track Log - Related Links

Times and Time Zones

All times are in EDT time to prevent confusion due to time zone crossing. See the AFR1068 flight status page for this flight to view local times or setup timezone preferences in your user account.

Time Position Orientation Groundspeed Altitude Reporting Facility
EDT Latitude Longitude Course Direction KTS MPH feet Rate Location/Type
07:23AM 49.7340 1.8229 327° Northwest  Level Estimated
07:24AM 49.7820 1.7736 326° Northwest  Level Estimated
07:25AM 49.8298 1.7243 326° Northwest  Level Estimated
07:26AM 49.8777 1.6749 326° Northwest  Level Estimated
07:27AM 49.9256 1.6253 326° Northwest  Level Estimated
07:28AM 49.9734 1.5757 326° Northwest  Level Estimated
07:29AM 50.0212 1.5260 326° Northwest  Level Estimated
07:30AM 50.0690 1.4761 326° Northwest  Level Estimated
07:31AM 50.1168 1.4262 326° Northwest  Level Estimated
07:32AM 50.1646 1.3762 326° Northwest  Level Estimated
07:33AM 50.2123 1.3261 326° Northwest  Level Estimated
07:34AM 50.2600 1.2758 326° Northwest  Level Estimated
07:35AM 50.3077 1.2255 326° Northwest  Level Estimated
07:36AM 50.3553 1.1751 326° Northwest  Level Estimated
07:37AM 50.4030 1.1245 326° Northwest  Level Estimated
07:38AM 50.4506 1.0739 326° Northwest  Level Estimated
07:39AM 50.4982 1.0232 326° Northwest  Level Estimated
07:40AM 50.5458 0.9723 326° Northwest  Level Estimated
07:41AM 50.6092 0.9044 326° Northwest  Level Estimated
07:42AM 50.6725 0.8363 326° Northwest  Level Estimated
07:43AM 50.7359 0.7679 326° Northwest  Level Estimated
07:44AM 50.7991 0.6994 326° Northwest  Level Estimated
07:45AM 50.8624 0.6308 326° Northwest  Level Estimated
07:46AM 50.9256 0.5619 326° Northwest  Level Estimated
07:47AM 50.9887 0.4928 325° Northwest  Level Estimated
07:48AM 51.0519 0.4236 325° Northwest  Level Estimated
07:49AM 51.1149 0.3542 325° Northwest  Level Estimated
07:50AM 51.1780 0.2845 325° Northwest  Level Estimated
07:51AM 51.2410 0.2147 325° Northwest  Level Estimated
07:52AM 51.3039 0.1447 325° Northwest  Level Estimated
07:53AM 51.3668 0.0745 325° Northwest  Level Estimated
07:54AM 51.4297 0.0041 325° Northwest  Level Estimated
07:55AM 51.4925 -0.0664 325° Northwest  Level Estimated
07:56AM 51.5553 -0.1372 325° Northwest  Level Estimated
07:57AM 51.6180 -0.2082 325° Northwest  Level Estimated
07:58AM 51.6808 -0.2794 325° Northwest  Level Estimated
07:59AM 51.7434 -0.3507 325° Northwest  Level Estimated
08:00AM 51.8060 -0.4223 325° Northwest  Level Estimated
08:01AM 51.8686 -0.4941 325° Northwest  Level Estimated
08:02AM 51.9311 -0.5661 325° Northwest  Level Estimated
08:03AM 51.9936 -0.6382 325° Northwest  Level Estimated
08:04AM 52.0560 -0.7106 325° Northwest  Level Estimated
08:05AM 52.1184 -0.7832 324° Northwest  Level Estimated
08:06AM 52.1808 -0.8559 324° Northwest  Level Estimated
08:07AM 52.2431 -0.9289 324° Northwest  Level Estimated
08:08AM 52.3053 -1.0021 324° Northwest  Level Estimated
08:09AM 52.3675 -1.0755 324° Northwest  Level Estimated
08:10AM 52.4297 -1.1491 324° Northwest  Level Estimated
08:11AM 52.4918 -1.2229 324° Northwest  Level Estimated
08:12AM 52.5539 -1.2969 324° Northwest  Level Estimated
08:13AM 52.6159 -1.3711 324° Northwest  Level Estimated
08:14AM 52.6779 -1.4455 324° Northwest  Level Estimated
08:15AM 52.7398 -1.5202 324° Northwest  Level Estimated
08:16AM 52.8017 -1.5950 324° Northwest  Level Estimated
08:17AM 52.8636 -1.6701 324° Northwest  Level Estimated
08:18AM 52.9254 -1.7454 324° Northwest  Level Estimated
08:19AM 52.9871 -1.8209 324° Northwest  Level Estimated
08:20AM 53.0488 -1.8966 324° Northwest  Level Estimated
08:21AM 53.1105 -1.9726 324° Northwest  Level Estimated
08:22AM 53.1721 -2.0487 323° Northwest  Level Estimated
08:23AM 53.2336 -2.1251 323° Northwest  Level Estimated
08:24AM 53.2951 -2.2017 323° Northwest  Level Estimated
08:25AM 53.3537 -2.2750 323° Northwest  Level Estimated
08:26AM 53.3537 -2.2750 North  Level Estimated
08:27AM 53.3537 -2.2750 North  Level Estimated
08:28AM 53.3537 -2.2750 North  Level Estimated
08:29AM 53.3537 -2.2750 North  Level Estimated
08:30AM 53.3537 -2.2750 North  Level Estimated
08:31AM 53.3537 -2.2750 North  Level Estimated